Time;durP1;ratioP1;P1;durP2;ratioP2;P2;SDS_P1;SDS_P2;PMS_P1;PMS_P2;Temp;Humidity;BMP_temperature;BMP_pressure;BME280_temperature;BME280_humidity;BME280_pressure;Samples;Min_cycle;Max_cycle;Signal;HPM_P1;HPM_P2
2021/01/04 00:01:21;;;;;;;1.95;1.40;;;;;;;;;;10324331;28;20037;-64
2021/01/04 00:06:18;;;;;;;4.90;1.67;;;;;;;;;;10304017;28;20051;-64
2021/01/04 00:11:30;;;;;;;2.70;1.47;;;;;;;;;;10317731;28;20155;-64
2021/01/04 00:16:27;;;;;;;3.30;1.60;;;;;;;;;;10321920;28;20033;-65
2021/01/04 00:21:31;;;;;;;1.77;1.53;;;;;;;;;;10308147;28;20029;-66
2021/01/04 00:26:43;;;;;;;3.03;1.50;;;;;;;;;;10325476;28;20040;-64
2021/01/04 00:31:43;;;;;;;3.22;1.50;;;;;;;;;;10308499;28;20036;-64
2021/01/04 00:36:52;;;;;;;5.85;1.67;;;;;;;;;;10315180;28;20047;-64
2021/01/04 00:41:58;;;;;;;3.97;1.95;;;;;;;;;;10323430;28;20044;-64
2021/01/04 00:47:04;;;;;;;2.20;1.33;;;;;;;;;;10320942;28;20052;-65
2021/01/04 00:52:20;;;;;;;3.28;1.30;;;;;;;;;;10317087;28;20115;-64
2021/01/04 00:57:36;;;;;;;4.78;1.92;;;;;;;;;;10319259;28;20041;-65
2021/01/04 01:02:48;;;;;;;1.63;1.15;;;;;;;;;;10322299;28;20094;-64
2021/01/04 01:08:06;;;;;;;1.50;1.35;;;;;;;;;;10314596;28;20440;-65
2021/01/04 01:13:10;;;;;;;2.65;1.15;;;;;;;;;;10306089;28;20036;-67
2021/01/04 01:18:07;;;;;;;4.13;1.85;;;;;;;;;;10309752;28;20512;-65
2021/01/04 01:23:06;;;;;;;2.37;1.50;;;;;;;;;;10317600;28;20125;-64
2021/01/04 01:28:09;;;;;;;6.18;1.50;;;;;;;;;;10324002;28;20108;-64
2021/01/04 01:33:09;;;;;;;2.80;1.67;;;;;;;;;;10313883;28;21237;-67
2021/01/04 01:38:33;;;;;;;2.53;1.35;;;;;;;;;;10308271;28;20048;-66
2021/01/04 01:43:30;;;;;;;4.47;2.15;;;;;;;;;;10283657;28;20037;-64
2021/01/04 01:48:35;;;;;;;3.57;1.73;;;;;;;;;;10318900;28;20048;-68
2021/01/04 01:53:32;;;;;;;1.75;1.25;;;;;;;;;;10309476;28;20036;-66
2021/01/04 01:58:48;;;;;;;2.63;1.40;;;;;;;;;;10332257;28;20492;-64
2021/01/04 02:03:59;;;;;;;1.50;1.08;;;;;;;;;;10306220;28;20692;-64
2021/01/04 02:09:17;;;;;;;2.90;1.38;;;;;;;;;;10320393;28;20037;-65
2021/01/04 02:14:25;;;;;;;1.17;1.00;;;;;;;;;;10305246;28;20040;-66
2021/01/04 02:19:28;;;;;;;5.60;1.60;;;;;;;;;;10305904;28;20622;-64
2021/01/04 02:24:26;;;;;;;1.65;1.35;;;;;;;;;;10324281;28;20020;-66
2021/01/04 02:29:24;;;;;;;1.83;1.00;;;;;;;;;;10328357;28;20033;-67
2021/01/04 02:34:24;;;;;;;2.58;1.10;;;;;;;;;;10323191;22;20499;-64
2021/01/04 02:39:30;;;;;;;4.93;1.48;;;;;;;;;;10303556;28;20068;-62
2021/01/04 02:44:28;;;;;;;2.92;1.20;;;;;;;;;;10317457;28;20047;-62
2021/01/04 02:49:34;;;;;;;1.10;1.00;;;;;;;;;;10310380;28;20076;-60
2021/01/04 02:54:35;;;;;;;3.13;1.00;;;;;;;;;;10301463;28;20116;-60
2021/01/04 02:59:44;;;;;;;3.67;0.80;;;;;;;;;;10298598;28;20033;-63
2021/01/04 03:04:42;;;;;;;1.10;0.90;;;;;;;;;;10306295;28;20375;-64
2021/01/04 03:09:51;;;;;;;1.15;1.00;;;;;;;;;;10310276;28;20045;-60
2021/01/04 03:14:48;;;;;;;;;;;;;;;;;;10307924;28;20102;-65
2021/01/04 03:19:49;;;;;;;1.98;1.08;;;;;;;;;;10308751;28;20372;-63
2021/01/04 03:24:47;;;;;;;3.53;1.02;;;;;;;;;;10309005;28;20040;-65
2021/01/04 03:29:45;;;;;;;1.75;1.10;;;;;;;;;;10307259;28;20044;-63
2021/01/04 03:34:42;;;;;;;1.50;1.20;;;;;;;;;;10315616;28;20535;-62
2021/01/04 03:39:40;;;;;;;0.93;0.67;;;;;;;;;;10327835;28;20432;-63
2021/01/04 03:44:38;;;;;;;4.43;1.10;;;;;;;;;;10341855;28;20052;-63
2021/01/04 03:49:35;;;;;;;4.47;1.80;;;;;;;;;;10321289;28;20154;-62
2021/01/04 03:54:33;;;;;;;0.83;0.83;;;;;;;;;;10314131;28;20021;-61
2021/01/04 03:59:30;;;;;;;2.23;1.10;;;;;;;;;;10319193;28;20160;-63
2021/01/04 04:04:28;;;;;;;1.63;1.20;;;;;;;;;;10328355;28;20171;-59
2021/01/04 04:09:25;;;;;;;1.83;0.80;;;;;;;;;;10331924;28;20033;-59
2021/01/04 04:14:22;;;;;;;1.80;1.37;;;;;;;;;;10327481;28;20034;-61
2021/01/04 04:19:20;;;;;;;1.90;1.07;;;;;;;;;;10331589;28;20037;-63
2021/01/04 04:24:17;;;;;;;1.97;0.90;;;;;;;;;;10319961;28;20112;-63
2021/01/04 04:29:15;;;;;;;1.23;0.85;;;;;;;;;;10324915;28;21382;-61
2021/01/04 04:34:13;;;;;;;5.30;1.13;;;;;;;;;;10320195;28;20052;-64
2021/01/04 04:39:11;;;;;;;2.08;1.05;;;;;;;;;;10311311;28;20044;-64
2021/01/04 04:44:09;;;;;;;2.53;1.05;;;;;;;;;;10294047;28;20044;-63
2021/01/04 04:49:15;;;;;;;2.33;1.20;;;;;;;;;;10294760;28;20040;-61
2021/01/04 04:54:27;;;;;;;2.50;1.02;;;;;;;;;;10300177;28;20035;-62
2021/01/04 04:59:43;;;;;;;1.52;1.27;;;;;;;;;;10306500;28;20037;-63
2021/01/04 05:04:50;;;;;;;1.67;1.27;;;;;;;;;;10306296;28;20582;-62
2021/01/04 05:09:54;;;;;;;2.78;1.40;;;;;;;;;;10311807;28;20048;-62
2021/01/04 05:14:57;;;;;;;4.38;1.42;;;;;;;;;;10307614;28;20135;-61
2021/01/04 05:20:01;;;;;;;2.50;1.30;;;;;;;;;;10301831;28;20037;-62
2021/01/04 05:25:07;;;;;;;1.58;1.10;;;;;;;;;;10306648;28;20037;-61
2021/01/04 05:30:14;;;;;;;2.00;1.00;;;;;;;;;;10321716;28;20116;-62
2021/01/04 05:35:12;;;;;;;2.53;1.10;;;;;;;;;;10331426;28;20144;-63
2021/01/04 05:40:13;;;;;;;2.20;1.10;;;;;;;;;;10317863;28;20091;-64
2021/01/04 05:45:11;;;;;;;4.03;1.55;;;;;;;;;;10326212;28;20033;-64
2021/01/04 05:50:13;;;;;;;1.85;1.50;;;;;;;;;;10309970;28;20056;-63
2021/01/04 05:55:14;;;;;;;5.13;1.67;;;;;;;;;;10313334;28;20044;-64
2021/01/04 06:00:12;;;;;;;1.77;1.15;;;;;;;;;;10314040;28;20124;-63
2021/01/04 06:05:15;;;;;;;9.18;1.60;;;;;;;;;;10315258;28;20424;-63
2021/01/04 06:10:20;;;;;;;2.80;1.30;;;;;;;;;;10303199;28;20038;-63
2021/01/04 06:15:29;;;;;;;1.20;1.02;;;;;;;;;;10299289;28;20061;-64
2021/01/04 06:20:38;;;;;;;1.55;1.30;;;;;;;;;;10289819;28;20041;-64
2021/01/04 06:25:36;;;;;;;1.73;1.20;;;;;;;;;;10307764;28;20474;-63
2021/01/04 06:30:37;;;;;;;2.60;1.10;;;;;;;;;;10315650;28;20025;-62
2021/01/04 06:35:35;;;;;;;3.50;1.00;;;;;;;;;;10303655;28;20057;-61
2021/01/04 06:40:37;;;;;;;1.57;0.97;;;;;;;;;;10303717;28;20067;-63
2021/01/04 06:45:46;;;;;;;3.20;1.00;;;;;;;;;;10323918;28;20376;-64
2021/01/04 06:50:47;;;;;;;3.72;1.05;;;;;;;;;;10309212;28;20021;-63
2021/01/04 06:56:03;;;;;;;1.40;1.02;;;;;;;;;;10300497;28;20021;-63
2021/01/04 07:01:00;;;;;;;1.55;1.00;;;;;;;;;;10321691;28;20037;-64
2021/01/04 07:06:05;;;;;;;0.90;0.90;;;;;;;;;;10325841;28;20026;-63
2021/01/04 07:11:20;;;;;;;1.02;0.98;;;;;;;;;;10332480;28;20128;-64
2021/01/04 07:16:17;;;;;;;1.63;0.95;;;;;;;;;;10315576;28;21483;-63
2021/01/04 07:21:27;;;;;;;3.50;1.20;;;;;;;;;;10321495;28;20033;-62
2021/01/04 07:26:43;;;;;;;1.10;0.90;;;;;;;;;;10309040;28;20491;-63
2021/01/04 07:31:57;;;;;;;1.90;0.93;;;;;;;;;;10323528;28;20059;-60
2021/01/04 07:37:07;;;;;;;2.08;1.30;;;;;;;;;;10325280;28;20519;-61
2021/01/04 07:42:07;;;;;;;0.90;0.85;;;;;;;;;;10314125;28;20056;-63
2021/01/04 07:47:13;;;;;;;5.30;1.23;;;;;;;;;;10327066;28;20479;-63
2021/01/04 07:52:32;;;;;;;3.95;1.42;;;;;;;;;;10303514;28;20033;-62
2021/01/04 07:57:29;;;;;;;2.78;1.30;;;;;;;;;;10315174;28;20039;-62
2021/01/04 08:02:26;;;;;;;2.43;1.33;;;;;;;;;;10325571;28;20033;-63
2021/01/04 08:07:27;;;;;;;2.27;1.37;;;;;;;;;;10316315;28;20475;-62
2021/01/04 08:12:43;;;;;;;2.70;1.02;;;;;;;;;;10307128;28;20037;-63
2021/01/04 08:17:46;;;;;;;3.20;1.23;;;;;;;;;;10304048;28;20450;-63
2021/01/04 08:22:43;;;;;;;1.88;1.30;;;;;;;;;;10300990;28;20029;-62
2021/01/04 08:27:47;;;;;;;1.30;0.90;;;;;;;;;;10314334;28;20523;-64
2021/01/04 08:32:59;;;;;;;1.50;1.05;;;;;;;;;;10311391;28;20083;-64
2021/01/04 08:37:58;;;;;;;2.95;1.40;;;;;;;;;;10325284;28;20056;-61
2021/01/04 08:43:06;;;;;;;1.70;0.93;;;;;;;;;;10323311;28;20070;-65
2021/01/04 08:48:17;;;;;;;4.70;1.10;;;;;;;;;;10316503;28;20534;-63
2021/01/04 08:53:17;;;;;;;1.92;1.58;;;;;;;;;;10327862;28;20041;-63
2021/01/04 08:58:20;;;;;;;1.67;1.17;;;;;;;;;;10307186;28;20033;-62
2021/01/04 09:03:21;;;;;;;1.08;0.95;;;;;;;;;;10328419;28;20083;-63
2021/01/04 09:08:27;;;;;;;3.22;0.95;;;;;;;;;;10314782;28;20036;-63
2021/01/04 09:13:33;;;;;;;3.08;1.23;;;;;;;;;;10308353;28;20120;-64
2021/01/04 09:18:59;;;;;;;2.60;1.48;;;;;;;;;;10321153;28;20036;-63
2021/01/04 09:24:06;;;;;;;2.45;1.42;;;;;;;;;;10299626;28;20080;-63
2021/01/04 09:29:06;;;;;;;3.25;1.27;;;;;;;;;;10317222;28;20572;-63
2021/01/04 09:34:11;;;;;;;0.80;0.80;;;;;;;;;;10309493;28;20175;-65
2021/01/04 09:39:09;;;;;;;3.85;1.08;;;;;;;;;;10326196;28;20418;-66
2021/01/04 09:44:08;;;;;;;2.55;1.20;;;;;;;;;;10323804;28;20189;-66
2021/01/04 09:49:08;;;;;;;3.17;1.27;;;;;;;;;;10309710;28;20132;-67
2021/01/04 09:54:07;;;;;;;2.38;1.27;;;;;;;;;;10309034;28;20502;-64
2021/01/04 09:59:07;;;;;;;2.40;0.88;;;;;;;;;;10315717;28;20410;-63
2021/01/04 10:04:04;;;;;;;2.47;1.17;;;;;;;;;;10323412;28;20898;-64
2021/01/04 10:09:07;;;;;;;1.47;0.90;;;;;;;;;;10332939;28;20410;-64
2021/01/04 10:14:08;;;;;;;1.70;1.00;;;;;;;;;;10318523;28;20040;-64
2021/01/04 10:19:09;;;;;;;2.53;1.30;;;;;;;;;;10318407;28;20133;-63
2021/01/04 10:24:10;;;;;;;1.45;0.95;;;;;;;;;;10323894;28;20065;-63
2021/01/04 10:29:08;;;;;;;2.45;1.00;;;;;;;;;;10328477;28;20431;-64
2021/01/04 10:34:06;;;;;;;1.73;1.20;;;;;;;;;;10319174;28;20126;-62
2021/01/04 10:39:06;;;;;;;1.13;0.90;;;;;;;;;;10311450;28;20036;-64
2021/01/04 10:44:12;;;;;;;0.75;0.75;;;;;;;;;;10295282;28;20041;-63
2021/01/04 10:49:12;;;;;;;3.00;0.90;;;;;;;;;;10323440;28;20044;-62
2021/01/04 10:54:13;;;;;;;1.42;1.02;;;;;;;;;;10331116;28;20033;-65
2021/01/04 10:59:18;;;;;;;2.97;1.00;;;;;;;;;;10318696;28;20053;-65
2021/01/04 11:04:17;;;;;;;0.80;0.80;;;;;;;;;;10304684;28;20443;-66
2021/01/04 11:09:19;;;;;;;1.55;1.35;;;;;;;;;;10328066;28;20037;-66
2021/01/04 11:14:19;;;;;;;1.08;0.98;;;;;;;;;;10313376;28;20029;-67
2021/01/04 11:19:27;;;;;;;4.85;1.17;;;;;;;;;;10304822;28;20618;-65
2021/01/04 11:24:24;;;;;;;1.80;1.00;;;;;;;;;;10307720;28;20040;-66
2021/01/04 11:29:22;;;;;;;1.80;1.13;;;;;;;;;;10313591;28;20534;-68
2021/01/04 11:34:19;;;;;;;3.50;0.90;;;;;;;;;;10317703;28;20047;-65
2021/01/04 11:39:19;;;;;;;1.63;1.07;;;;;;;;;;10287216;28;20074;-66
2021/01/04 11:44:17;;;;;;;0.85;0.85;;;;;;;;;;10318703;28;20036;-66
2021/01/04 11:49:14;;;;;;;1.17;0.90;;;;;;;;;;10310529;28;20518;-65
2021/01/04 11:54:13;;;;;;;1.63;1.27;;;;;;;;;;10326607;28;20534;-64
2021/01/04 11:59:11;;;;;;;0.93;0.82;;;;;;;;;;10318779;28;20171;-65
2021/01/04 12:04:09;;;;;;;1.60;0.93;;;;;;;;;;10316562;28;20053;-64
2021/01/04 12:09:08;;;;;;;1.07;1.00;;;;;;;;;;10322197;28;20503;-64
2021/01/04 12:14:07;;;;;;;3.67;1.35;;;;;;;;;;10339194;28;20056;-64
2021/01/04 12:19:05;;;;;;;4.57;0.85;;;;;;;;;;10324766;28;20035;-67
2021/01/04 12:24:02;;;;;;;1.42;1.30;;;;;;;;;;10318177;28;20052;-63
2021/01/04 12:29:00;;;;;;;0.80;0.80;;;;;;;;;;10323829;28;20037;-63
2021/01/04 12:33:58;;;;;;;4.20;1.10;;;;;;;;;;10317428;28;20045;-62
2021/01/04 12:38:55;;;;;;;1.83;1.20;;;;;;;;;;10316859;28;20055;-63
2021/01/04 12:43:52;;;;;;;1.70;0.80;;;;;;;;;;10326028;28;20115;-64
2021/01/04 12:48:50;;;;;;;1.17;0.67;;;;;;;;;;10318929;28;20041;-63
2021/01/04 12:53:47;;;;;;;4.70;1.10;;;;;;;;;;10330246;28;20110;-64
2021/01/04 12:58:45;;;;;;;1.40;0.73;;;;;;;;;;10310868;28;20469;-65
2021/01/04 13:03:43;;;;;;;0.83;0.83;;;;;;;;;;10331504;28;20094;-63
2021/01/04 13:08:40;;;;;;;1.75;1.17;;;;;;;;;;10325741;28;20056;-65
2021/01/04 13:13:37;;;;;;;3.97;1.23;;;;;;;;;;10317830;28;20029;-70
2021/01/04 13:18:35;;;;;;;1.23;0.70;;;;;;;;;;10333546;28;20040;-64
2021/01/04 13:23:32;;;;;;;1.37;0.90;;;;;;;;;;10316996;28;20529;-64
2021/01/04 13:28:30;;;;;;;1.20;1.10;;;;;;;;;;10321830;28;20041;-62
2021/01/04 13:33:27;;;;;;;2.60;0.70;;;;;;;;;;10310690;28;20331;-64
2021/01/04 13:38:26;;;;;;;0.87;0.87;;;;;;;;;;10321216;28;20033;-63
2021/01/04 13:43:23;;;;;;;4.13;0.82;;;;;;;;;;10322703;28;20406;-64
2021/01/04 13:48:21;;;;;;;1.27;0.70;;;;;;;;;;10320514;28;20048;-64
2021/01/04 13:53:18;;;;;;;6.83;1.17;;;;;;;;;;10335690;28;20025;-64
2021/01/04 13:58:15;;;;;;;0.87;0.80;;;;;;;;;;10327756;28;20048;-66
2021/01/04 14:03:13;;;;;;;1.50;0.77;;;;;;;;;;10331882;28;20163;-65
2021/01/04 14:08:11;;;;;;;1.95;0.73;;;;;;;;;;10323438;28;20041;-65
2021/01/04 14:13:08;;;;;;;2.50;1.40;;;;;;;;;;10317904;28;20052;-64
2021/01/04 14:18:06;;;;;;;4.57;0.90;;;;;;;;;;10323476;28;20076;-64
2021/01/04 14:23:03;;;;;;;1.47;0.70;;;;;;;;;;10309889;28;20032;-65
2021/01/04 14:28:01;;;;;;;3.57;0.63;;;;;;;;;;10320713;28;20061;-64
2021/01/04 14:32:58;;;;;;;1.10;0.70;;;;;;;;;;10327629;28;20033;-65
2021/01/04 14:37:55;;;;;;;0.87;0.70;;;;;;;;;;10294860;28;20296;-63
2021/01/04 14:42:57;;;;;;;0.90;0.83;;;;;;;;;;10318125;28;20037;-66
2021/01/04 14:47:54;;;;;;;3.10;0.77;;;;;;;;;;10328334;28;20132;-67
2021/01/04 14:52:52;;;;;;;1.80;0.80;;;;;;;;;;10319737;28;20151;-65
2021/01/04 14:57:49;;;;;;;1.00;0.80;;;;;;;;;;10305349;28;20033;-63
2021/01/04 15:02:46;;;;;;;2.70;1.00;;;;;;;;;;10319534;28;20402;-63
2021/01/04 15:07:44;;;;;;;1.47;1.10;;;;;;;;;;10328259;28;20060;-64
2021/01/04 15:12:41;;;;;;;1.60;1.43;;;;;;;;;;10308558;28;20514;-62
2021/01/04 15:17:39;;;;;;;1.00;0.90;;;;;;;;;;10312069;28;20036;-63
2021/01/04 15:22:36;;;;;;;1.90;0.77;;;;;;;;;;10321919;28;20521;-67
2021/01/04 15:27:33;;;;;;;0.90;0.90;;;;;;;;;;10316919;28;20051;-62
2021/01/04 15:32:31;;;;;;;4.63;0.90;;;;;;;;;;10327481;28;20041;-63
2021/01/04 15:37:28;;;;;;;3.30;1.10;;;;;;;;;;10320106;28;20041;-63
2021/01/04 15:42:26;;;;;;;1.73;0.90;;;;;;;;;;10326226;28;20035;-63
2021/01/04 15:47:23;;;;;;;1.67;1.03;;;;;;;;;;10321289;28;20033;-64
2021/01/04 15:52:20;;;;;;;1.57;1.10;;;;;;;;;;10327135;28;20037;-64
2021/01/04 15:57:19;;;;;;;1.33;0.80;;;;;;;;;;10311779;28;20037;-68
2021/01/04 16:02:17;;;;;;;1.13;0.77;;;;;;;;;;10326043;28;20037;-62
2021/01/04 16:07:14;;;;;;;4.40;0.97;;;;;;;;;;10312500;28;20044;-63
2021/01/04 16:12:13;;;;;;;1.67;1.00;;;;;;;;;;10311779;28;20029;-65
2021/01/04 16:17:10;;;;;;;1.15;0.55;;;;;;;;;;10322571;28;20045;-63
2021/01/04 16:22:08;;;;;;;2.07;0.70;;;;;;;;;;10318235;28;20032;-63
2021/01/04 16:27:06;;;;;;;1.55;1.10;;;;;;;;;;10329860;28;20032;-65
2021/01/04 16:32:07;;;;;;;3.13;0.80;;;;;;;;;;10327723;28;20059;-62
2021/01/04 16:37:10;;;;;;;2.33;1.00;;;;;;;;;;10315589;28;20106;-65
2021/01/04 16:42:13;;;;;;;1.60;1.00;;;;;;;;;;10326022;28;20064;-65
2021/01/04 16:47:11;;;;;;;1.08;1.05;;;;;;;;;;10323918;28;20036;-64
2021/01/04 16:52:09;;;;;;;2.25;1.35;;;;;;;;;;10333573;28;20128;-65
2021/01/04 16:57:07;;;;;;;1.10;1.00;;;;;;;;;;10308841;28;20157;-65
2021/01/04 17:02:05;;;;;;;0.90;0.75;;;;;;;;;;10322608;28;20063;-65
2021/01/04 17:07:04;;;;;;;1.13;1.02;;;;;;;;;;10308476;28;20728;-63
2021/01/04 17:12:01;;;;;;;4.40;1.08;;;;;;;;;;10320554;28;20040;-63
2021/01/04 17:16:59;;;;;;;1.20;1.00;;;;;;;;;;10312125;28;20079;-67
2021/01/04 17:21:57;;;;;;;1.75;0.90;;;;;;;;;;10322138;28;20041;-64
2021/01/04 17:26:55;;;;;;;;;;;;;;;;;;10314078;28;20482;-66
2021/01/04 17:31:53;;;;;;;1.30;1.08;;;;;;;;;;10325551;28;19970;-66
2021/01/04 17:36:51;;;;;;;1.33;1.08;;;;;;;;;;10331582;28;20037;-65
2021/01/04 17:41:56;;;;;;;1.30;1.05;;;;;;;;;;10318320;28;20527;-63
2021/01/04 17:46:54;;;;;;;3.65;1.40;;;;;;;;;;10315838;28;20041;-65
2021/01/04 17:51:51;;;;;;;2.03;1.73;;;;;;;;;;10318287;28;20041;-65
2021/01/04 17:56:49;;;;;;;2.27;1.60;;;;;;;;;;10324461;28;20135;-65
2021/01/04 18:01:48;;;;;;;2.83;1.30;;;;;;;;;;10326973;28;20040;-64
2021/01/04 18:06:45;;;;;;;1.52;1.08;;;;;;;;;;10316188;28;20850;-66
2021/01/04 18:11:45;;;;;;;1.80;1.30;;;;;;;;;;10314484;28;20033;-65
2021/01/04 18:16:49;;;;;;;1.15;1.05;;;;;;;;;;10317156;28;20095;-65
2021/01/04 18:21:46;;;;;;;4.85;1.55;;;;;;;;;;10313933;28;20037;-66
2021/01/04 18:26:46;;;;;;;1.80;1.30;;;;;;;;;;10305213;28;20029;-67
2021/01/04 18:31:44;;;;;;;2.72;1.38;;;;;;;;;;10323911;28;20052;-65
2021/01/04 18:36:41;;;;;;;1.15;0.93;;;;;;;;;;10328109;28;20053;-66
2021/01/04 18:41:39;;;;;;;1.27;1.27;;;;;;;;;;10321576;28;20057;-65
2021/01/04 18:46:36;;;;;;;2.73;1.23;;;;;;;;;;10314508;28;20582;-65
2021/01/04 18:51:39;;;;;;;1.70;1.33;;;;;;;;;;10327817;28;20033;-66
2021/01/04 18:56:38;;;;;;;3.05;1.40;;;;;;;;;;10308272;28;20029;-67
2021/01/04 19:01:35;;;;;;;1.25;1.00;;;;;;;;;;10321118;28;20124;-65
2021/01/04 19:06:34;;;;;;;3.57;1.37;;;;;;;;;;10301277;28;20530;-66
2021/01/04 19:11:31;;;;;;;;;;;;;;;;;;10314682;28;20522;-65
2021/01/04 19:16:29;;;;;;;2.58;1.23;;;;;;;;;;10318385;28;20008;-65
2021/01/04 19:21:36;;;;;;;2.25;1.20;;;;;;;;;;10321105;28;20037;-65
2021/01/04 19:26:35;;;;;;;4.57;1.80;;;;;;;;;;10319989;28;20408;-64
2021/01/04 19:31:37;;;;;;;2.80;1.63;;;;;;;;;;10319145;28;20051;-65
2021/01/04 19:36:40;;;;;;;3.58;2.03;;;;;;;;;;10321490;28;20068;-64
2021/01/04 19:41:38;;;;;;;3.08;1.80;;;;;;;;;;10323310;28;20056;-65
2021/01/04 19:46:36;;;;;;;3.93;1.60;;;;;;;;;;10326606;28;20055;-65
2021/01/04 19:51:34;;;;;;;2.38;1.33;;;;;;;;;;10309292;28;20280;-67
2021/01/04 19:56:33;;;;;;;2.95;1.75;;;;;;;;;;10318096;28;20125;-63
2021/01/04 20:01:33;;;;;;;3.30;1.42;;;;;;;;;;10323300;28;20040;-64
2021/01/04 20:06:31;;;;;;;1.77;1.27;;;;;;;;;;10307313;28;20039;-64
2021/01/04 20:11:29;;;;;;;1.73;1.50;;;;;;;;;;10321999;28;20029;-64
2021/01/04 20:16:27;;;;;;;;;;;;;;;;;;10319977;28;20276;-65
2021/01/04 20:21:27;;;;;;;2.47;1.50;;;;;;;;;;10325372;28;19912;-64
2021/01/04 20:26:29;;;;;;;2.35;1.77;;;;;;;;;;10315105;28;20048;-66
2021/01/04 20:31:34;;;;;;;2.72;1.80;;;;;;;;;;10309497;28;20044;-64
2021/01/04 20:36:31;;;;;;;3.25;2.22;;;;;;;;;;10322042;28;20048;-64
2021/01/04 20:41:29;;;;;;;4.10;2.33;;;;;;;;;;10321372;28;20029;-64
2021/01/04 20:46:29;;;;;;;3.37;1.73;;;;;;;;;;10319436;28;20037;-64
2021/01/04 20:51:27;;;;;;;3.40;1.73;;;;;;;;;;10318300;28;20495;-64
2021/01/04 20:56:28;;;;;;;2.70;2.23;;;;;;;;;;10296695;28;20064;-62
2021/01/04 21:01:25;;;;;;;2.90;1.52;;;;;;;;;;10312747;28;20275;-63
2021/01/04 21:06:31;;;;;;;7.80;2.57;;;;;;;;;;10329863;28;20037;-64
2021/01/04 21:11:28;;;;;;;2.75;1.77;;;;;;;;;;10291110;28;20068;-62
2021/01/04 21:16:25;;;;;;;5.63;1.90;;;;;;;;;;10316530;28;20083;-64
2021/01/04 21:21:23;;;;;;;2.37;1.80;;;;;;;;;;10300815;28;20025;-64
2021/01/04 21:26:23;;;;;;;4.27;2.27;;;;;;;;;;10314009;28;20091;-62
2021/01/04 21:31:28;;;;;;;5.85;2.03;;;;;;;;;;10320906;28;20036;-61
2021/01/04 21:36:29;;;;;;;3.40;2.13;;;;;;;;;;10296676;28;20105;-61
2021/01/04 21:41:27;;;;;;;3.97;1.92;;;;;;;;;;10328929;28;20043;-62
2021/01/04 21:46:28;;;;;;;2.08;1.77;;;;;;;;;;10326137;28;20503;-62
2021/01/04 21:51:29;;;;;;;5.05;2.08;;;;;;;;;;10316611;28;20029;-62
2021/01/04 21:56:27;;;;;;;2.40;1.77;;;;;;;;;;10311964;28;20061;-63
2021/01/04 22:01:25;;;;;;;6.73;1.93;;;;;;;;;;10329238;28;20124;-63
2021/01/04 22:06:24;;;;;;;2.57;1.70;;;;;;;;;;10323534;28;20057;-63
2021/01/04 22:11:29;;;;;;;6.00;2.00;;;;;;;;;;10306453;28;20280;-62
2021/01/04 22:16:26;;;;;;;3.15;1.80;;;;;;;;;;10329596;28;20076;-63
2021/01/04 22:21:24;;;;;;;3.57;2.00;;;;;;;;;;10328850;28;20183;-63
2021/01/04 22:26:24;;;;;;;4.97;1.90;;;;;;;;;;10333039;28;20040;-63
2021/01/04 22:31:23;;;;;;;4.88;2.15;;;;;;;;;;10311805;28;20125;-66
2021/01/04 22:36:22;;;;;;;1.85;1.17;;;;;;;;;;10322466;28;20671;-66
2021/01/04 22:41:20;;;;;;;3.33;1.70;;;;;;;;;;10320711;28;20391;-65
2021/01/04 22:46:18;;;;;;;3.33;1.92;;;;;;;;;;10330270;28;20096;-64
2021/01/04 22:51:16;;;;;;;2.75;2.13;;;;;;;;;;10331709;28;20057;-64
2021/01/04 22:56:15;;;;;;;2.78;2.15;;;;;;;;;;10318528;28;20115;-64
2021/01/04 23:01:14;;;;;;;3.78;2.03;;;;;;;;;;10308398;28;20056;-65
2021/01/04 23:06:22;;;;;;;2.67;1.58;;;;;;;;;;10324662;28;20033;-66
2021/01/04 23:11:19;;;;;;;2.40;2.03;;;;;;;;;;10309242;28;20086;-63
2021/01/04 23:16:16;;;;;;;6.37;1.33;;;;;;;;;;10303340;28;20083;-66
2021/01/04 23:21:14;;;;;;;3.07;1.53;;;;;;;;;;10328120;28;20036;-65
2021/01/04 23:26:11;;;;;;;4.60;2.07;;;;;;;;;;10327212;28;20044;-63
2021/01/04 23:31:09;;;;;;;2.43;1.60;;;;;;;;;;10330835;28;20075;-66
2021/01/04 23:36:07;;;;;;;3.07;1.80;;;;;;;;;;10325874;28;20029;-64
2021/01/04 23:41:06;;;;;;;2.63;1.50;;;;;;;;;;10332417;28;20071;-65
2021/01/04 23:46:04;;;;;;;2.08;1.20;;;;;;;;;;10320641;28;20047;-65
2021/01/04 23:51:03;;;;;;;2.57;2.00;;;;;;;;;;10326369;28;20047;-66
2021/01/04 23:56:00;;;;;;;2.58;1.85;;;;;;;;;;10319052;28;20569;-65
